Terminal Aerodrome Forecast
Issued by NWS

Home | Current Version | Previous Version | Text Only | Print | Product List | Glossary On
Versions: 1 2 3 4 5 6 7 8 9 10 11 12 13
000
FTUS44 KOUN 161740
TAFCSM
TAF
KCSM 161740Z 1618/1718 21013G22KT P6SM SCT050
     FM170100 32009KT P6SM VCTS SCT035CB BKN120
      TEMPO 1702/1705 VRB25G35KT 2SM TSRA BKN025CB
     FM170600 35005KT P6SM SCT050 BKN100=

USA.gov is the U.S. government's official web portal to all federal, state and local government web resources and services.